• Join FlightAware (Why Join?)
  • Login
  • US Flag 
09:09AM EDT


 

Airport Tracker/Info


-or-


 

Live Flight TrackerFlight Track Log ✈ UAL4180 ✈ 30-Apr-2013 ✈ CYYZ - KEWR

Flight Track Log - Related Links

Times and Time Zones

All times are in EDT time to prevent confusion due to time zone crossing. See the UAL4180 flight status page for this flight to view local times or setup timezone preferences in your user account.

Time Position Orientation Groundspeed Altitude Reporting Facility
EDT Latitude Longitude Course Direction KTS MPH feet Rate Location/Type
09:11PM 43.5167 -79.5833 North 20 23 500  Level Toronto Center
09:12PM 43.6833 -79.5667 North 180 207 2,500 3,000 Climbing Toronto Center
09:13PM 43.7333 -79.5000 44° Northeast 230 265 5,700 3,000 Climbing Toronto Center
09:14PM 43.7500 -79.4333 71° East 250 288 8,500 2,400 Climbing Toronto Center
09:15PM 43.7000 -79.3333 125° Southeast 300 345 10,600 2,040 Climbing Toronto Center
09:16PM 43.6333 -79.2333 133° Southeast 350 403 12,600 1,800 Climbing Toronto Center
09:17PM 43.5667 -79.1333 133° Southeast 360 414 14,200 1,500 Climbing Toronto Center
09:18PM 43.5000 -79.0167 128° Southeast 390 449 15,700 1,500 Climbing Toronto Center
09:19PM 43.4167 -78.9000 134° Southeast 400 460 17,200 1,320 Climbing Toronto Center
09:20PM 43.3833 -78.7667 109° East 400 460 18,400 1,320 Climbing Toronto Center
09:21PM 43.3333 -78.6167 115° Southeast 410 472 19,900 1,500 Climbing Toronto Center
09:22PM 43.2667 -78.4667 121° Southeast 420 483 21,400 1,440 Climbing Toronto Center
09:23PM 43.2167 -78.3333 117° Southeast 420 483 22,800 1,380 Climbing Toronto Center
09:24PM 43.1833 -78.2000 109° East 420 483 24,200 1,440 Climbing Toronto Center
09:25PM 43.1333 -78.0333 112° Southeast 430 495 25,700 1,320 Climbing Toronto Center
09:26PM 43.0833 -77.8833 114° Southeast 420 483 26,900 600 Climbing Toronto Center
09:27PM 43.0333 -77.7333 114° Southeast 440 506 27,000  Climbing Toronto Center
09:28PM 42.9833 -77.5833 114° Southeast 460 529 27,000  Level Toronto Center
09:29PM 42.9333 -77.4167 112° Southeast 470 541 27,000  Level Toronto Center
09:30PM 42.8667 -77.2500 119° Southeast 470 541 27,000  Level Toronto Center
09:31PM 42.8572 -77.2050 106° East 455 524 27,000  Level Boston Center
09:32PM 42.8033 -77.0450 115° Southeast 455 524 27,000  Level Boston Center
09:33PM 42.7583 -76.9144 115° Southeast 460 529 27,000  Level Boston Center
09:34PM 42.6986 -76.7378 115° Southeast 460 529 27,000  Level Boston Center
09:35PM 42.6417 -76.5814 116° Southeast 460 529 27,000  Level Boston Center
09:36PM 42.5586 -76.4008 122° Southeast 465 535 27,000  Level Boston Center
09:37PM 42.4928 -76.2531 121° Southeast 465 535 27,000  Level Boston Center
09:38PM 42.4247 -76.1053 122° Southeast 465 535 27,000 -60 Level Boston Center
09:39PM 42.3564 -75.9553 122° Southeast 465 535 26,900 -600 Descending Boston Center
09:40PM 42.2861 -75.7942 120° Southeast 465 535 25,800 -1,740 Descending Boston Center
09:41PM 42.2214 -75.6531 122° Southeast 458 527 23,500 -2,400 Descending Boston Center
09:42PM 42.1564 -75.5153 122° Southeast 452 520 21,000 -2,520 Descending Boston Center
09:43PM 42.0956 -75.3808 121° Southeast 439 505 18,500 -1,500 Descending Boston Center
09:44PM 42.0406 -75.2497 119° Southeast 418 481 18,000 -300 Descending Boston Center
09:45PM 41.9914 -75.1244 118° Southeast 394 453 18,000  Level Boston Center
09:46PM 41.9303 -74.9656 117° Southeast 388 447 18,000 -60 Level Boston Center
09:47PM 41.8828 -74.8494 119° Southeast 395 455 17,900 -1,080 Descending Boston Center
09:48PM 41.7936 -74.7347 136° Southeast 396 456 15,900 -2,220 Descending Boston Center
09:49PM 41.7136 -74.6622 146° Southeast 396 456 13,500 -2,400 Descending Boston Center
09:50PM 41.6217 -74.5783 146° Southeast 381 438 11,200 -1,800 Descending Boston Center
09:51PM 41.5581 -74.5181 145° Southeast 334 384 10,000 -1,320 Descending Boston Center
09:53PM 41.4000 -74.4000 151° Southeast 265 305 7,000 -960 Descending New York TRACON
09:54PM 41.3333 -74.3667 159° South 265 305 7,000 -60 Level New York TRACON
09:55PM 41.2667 -74.3167 151° Southeast 264 304 6,900 -600 Descending New York TRACON
09:56PM 41.2000 -74.2833 159° South 253 291 5,900 -960 Descending New York TRACON
09:57PM 41.1500 -74.2500 153° Southeast 245 282 5,100 -900 Descending New York TRACON
09:58PM 41.0833 -74.2000 151° Southeast 236 272 4,100 -540 Descending New York TRACON
09:59PM 41.0333 -74.1667 153° Southeast 229 264 4,000 -60 Descending New York TRACON
10:00PM 40.9667 -74.1333 159° South 221 254 4,000  Level New York TRACON
10:01PM 40.9333 -74.0833 131° Southeast 169 194 4,000 -420 Level New York TRACON
10:02PM 40.9000 -74.0500 143° Southeast 170 196 3,200 -540 Descending New York TRACON
10:03PM 40.8500 -74.0500 180° South 179 206 3,000 -300 Descending New York TRACON
10:04PM 40.8167 -74.0833 217° Southwest 180 207 2,600 -660 Descending New York TRACON
10:05PM 40.7667 -74.1167 207° Southwest 137 158 1,700 -780 Descending New York TRACON
10:06PM 40.7500 -74.1333 217° Southwest 121 139 1,100 -720 Descending New York TRACON
10:07PM 40.7167 -74.1500 201° Southwest 125 144 300 -840 Descending New York TRACON
10:09PM 40.6925 -74.1687 205° Southwest  Level Estimated
10:16PM 40.6925 -74.1687 205° Southwest  Level Estimated
10:17PM 40.6925 -74.1687 205° Southwest  Level Estimated
10:18PM 40.6925 -74.1687 205° Southwest  Level Estimated